createdAt,value
2022-08-11T00:02:34.083Z,97.24
2022-08-11T00:05:08.315Z,97.88
2022-08-11T00:07:44.768Z,98.28
2022-08-11T00:10:15.620Z,99.08
2022-08-11T00:12:45.489Z,99.51
2022-08-11T00:15:15.002Z,100.00
2022-08-11T00:17:43.625Z,100.00
2022-08-11T00:20:17.014Z,100.00
2022-08-11T00:22:47.478Z,100.00
2022-08-11T00:25:17.738Z,100.00
2022-08-11T00:27:46.998Z,100.00
2022-08-11T00:30:17.448Z,100.00
2022-08-11T00:32:53.594Z,100.00
2022-08-11T00:35:52.512Z,100.00
2022-08-11T00:38:16.913Z,100.00
2022-08-11T00:41:02.620Z,100.00
2022-08-11T00:43:48.329Z,100.00
2022-08-11T00:46:30.649Z,100.00
2022-08-11T00:49:12.078Z,100.00
2022-08-11T00:52:05.499Z,100.00
2022-08-11T00:55:27.533Z,100.00
2022-08-11T00:58:43.633Z,100.00
2022-08-11T01:01:27.818Z,100.00
2022-08-11T01:04:18.096Z,100.00
2022-08-11T01:08:02.966Z,100.00
2022-08-11T01:10:43.559Z,100.00
2022-08-11T01:13:20.064Z,100.00
2022-08-11T01:16:10.736Z,100.00
2022-08-11T01:19:34.090Z,100.00
2022-08-11T01:22:51.742Z,100.00
2022-08-11T01:25:57.053Z,100.00
2022-08-11T01:28:56.258Z,100.00
2022-08-11T01:31:58.597Z,100.00
2022-08-11T01:35:22.206Z,100.00
2022-08-11T01:38:25.320Z,100.00
2022-08-11T01:41:07.475Z,100.00
2022-08-11T01:44:21.864Z,100.00
2022-08-11T01:46:58.084Z,100.00
2022-08-11T01:50:08.813Z,100.00
2022-08-11T01:52:35.175Z,100.00
2022-08-11T01:55:14.116Z,100.00
2022-08-11T01:57:48.508Z,100.00
2022-08-11T02:00:20.318Z,100.00
2022-08-11T02:02:55.144Z,100.00
2022-08-11T02:05:49.822Z,100.00
2022-08-11T02:08:36.777Z,100.00
2022-08-11T02:11:35.281Z,100.00
2022-08-11T02:14:22.341Z,100.00
2022-08-11T02:17:00.063Z,100.00
2022-08-11T02:20:00.564Z,100.00
2022-08-11T02:22:54.612Z,100.00
2022-08-11T02:25:31.809Z,100.00
2022-08-11T02:28:08.813Z,100.00
2022-08-11T02:30:42.646Z,100.00
2022-08-11T02:33:23.150Z,100.00
2022-08-11T02:35:59.473Z,100.00
2022-08-11T02:38:33.541Z,100.00
2022-08-11T02:41:31.422Z,100.00
2022-08-11T02:44:14.440Z,100.00
2022-08-11T02:46:52.574Z,100.00
2022-08-11T02:49:59.975Z,100.00
2022-08-11T02:52:42.345Z,100.00
2022-08-11T02:55:56.037Z,100.00
2022-08-11T02:58:17.339Z,100.00
2022-08-11T03:00:57.419Z,100.00
2022-08-11T03:03:37.239Z,100.00
2022-08-11T03:06:11.405Z,100.00
2022-08-11T03:08:52.550Z,100.00
2022-08-11T03:11:57.513Z,100.00
2022-08-11T03:14:49.919Z,100.00
2022-08-11T03:17:27.036Z,100.00
2022-08-11T03:20:07.377Z,100.00
2022-08-11T03:22:41.545Z,100.00
2022-08-11T03:25:18.575Z,100.00
2022-08-11T03:27:53.433Z,100.00
2022-08-11T03:30:30.292Z,100.00
2022-08-11T03:33:37.159Z,100.00
2022-08-11T03:36:14.241Z,100.00
2022-08-11T03:39:10.209Z,100.00
2022-08-11T03:42:01.281Z,100.00
2022-08-11T03:44:56.850Z,100.00
2022-08-11T03:47:55.128Z,100.00
2022-08-11T03:50:51.884Z,100.00
2022-08-11T03:53:40.888Z,100.00
2022-08-11T03:56:38.356Z,100.00
2022-08-11T03:59:38.642Z,100.00
2022-08-11T04:02:20.025Z,100.00
2022-08-11T04:05:24.747Z,100.00
2022-08-11T04:08:37.174Z,100.00
2022-08-11T04:11:42.858Z,100.00
2022-08-11T04:15:01.104Z,100.00
2022-08-11T04:17:50.374Z,100.00
2022-08-11T04:20:50.801Z,100.00
2022-08-11T04:24:35.529Z,100.00
2022-08-11T04:27:24.295Z,100.00
2022-08-11T04:30:12.333Z,100.00
2022-08-11T04:33:03.805Z,100.00
2022-08-11T04:35:50.177Z,100.00
2022-08-11T04:38:46.024Z,100.00
2022-08-11T04:42:15.128Z,100.00
2022-08-11T04:45:25.147Z,100.00
2022-08-11T04:48:28.658Z,100.00
2022-08-11T04:51:31.533Z,100.00
2022-08-11T04:54:28.438Z,100.00
2022-08-11T04:57:32.395Z,100.00
2022-08-11T05:00:24.121Z,100.00
2022-08-11T05:03:14.930Z,100.00
2022-08-11T05:06:30.584Z,100.00
2022-08-11T05:09:47.343Z,100.00
2022-08-11T05:12:36.709Z,100.00
2022-08-11T05:15:23.354Z,100.00
2022-08-11T05:18:19.544Z,100.00
2022-08-11T05:21:23.795Z,100.00
2022-08-11T05:24:16.128Z,100.00
2022-08-11T05:27:11.271Z,100.00
2022-08-11T05:30:04.538Z,100.00
2022-08-11T05:33:00.956Z,100.00
2022-08-11T05:36:00.734Z,100.00
2022-08-11T05:38:43.541Z,100.00
2022-08-11T05:41:31.017Z,100.00
2022-08-11T05:44:21.077Z,98.93
2022-08-11T05:47:10.139Z,98.62
2022-08-11T05:49:56.760Z,98.41
2022-08-11T05:52:44.952Z,97.04
2022-08-11T05:55:35.035Z,95.96
2022-08-11T05:58:06.096Z,95.28
2022-08-11T06:00:43.518Z,93.15
2022-08-11T06:03:21.438Z,89.08
2022-08-11T06:05:50.781Z,86.70
2022-08-11T06:08:29.735Z,86.53
2022-08-11T06:11:02.869Z,85.21
2022-08-11T06:13:31.756Z,82.02
2022-08-11T06:16:06.251Z,83.90
2022-08-11T06:18:37.875Z,82.72
2022-08-11T06:21:11.159Z,80.13
2022-08-11T06:23:42.581Z,80.29
2022-08-11T06:26:11.738Z,79.92
2022-08-11T06:28:41.882Z,77.42
2022-08-11T06:31:14.537Z,77.57
2022-08-11T06:33:56.988Z,76.19
2022-08-11T06:36:32.179Z,74.77
2022-08-11T06:39:10.622Z,75.52
2022-08-11T06:41:46.212Z,75.76
2022-08-11T06:44:25.226Z,75.07
2022-08-11T06:46:56.020Z,73.90
2022-08-11T06:49:52.598Z,75.35
2022-08-11T06:52:34.497Z,72.36
2022-08-11T06:55:12.621Z,71.84
2022-08-11T06:58:15.024Z,71.75
2022-08-11T07:00:43.703Z,71.26
2022-08-11T07:03:13.697Z,69.87
2022-08-11T07:05:48.532Z,69.26
2022-08-11T07:08:57.048Z,69.58
2022-08-11T07:12:03.592Z,70.49
2022-08-11T07:14:50.583Z,70.26
2022-08-11T07:17:23.113Z,70.19
2022-08-11T07:20:12.498Z,66.94
2022-08-11T07:23:01.944Z,67.87
2022-08-11T07:25:49.232Z,66.69
2022-08-11T07:28:40.454Z,67.01
2022-08-11T07:31:14.022Z,66.71
2022-08-11T07:34:07.244Z,66.11
2022-08-11T07:36:38.894Z,64.50
2022-08-11T07:39:10.832Z,64.90
2022-08-11T07:41:39.199Z,65.48
2022-08-11T07:44:11.634Z,63.85
2022-08-11T07:47:01.029Z,64.24
2022-08-11T07:49:50.582Z,63.63
2022-08-11T07:52:29.459Z,62.30
2022-08-11T07:55:02.595Z,61.87
2022-08-11T07:58:15.136Z,61.60
2022-08-11T08:00:59.254Z,61.06
2022-08-11T08:03:54.376Z,60.99
2022-08-11T08:06:41.721Z,60.28
2022-08-11T08:09:27.949Z,59.66
2022-08-11T08:12:15.800Z,58.54
2022-08-11T08:15:01.510Z,57.91
2022-08-11T08:18:21.036Z,58.71
2022-08-11T08:20:40.363Z,57.24
2022-08-11T08:23:09.509Z,56.17
2022-08-11T08:25:40.420Z,54.92
2022-08-11T08:28:14.107Z,53.52
2022-08-11T08:30:48.447Z,54.38
2022-08-11T08:33:20.960Z,54.29
2022-08-11T08:35:55.542Z,53.44
2022-08-11T08:38:25.254Z,53.88
2022-08-11T08:40:56.450Z,54.45
2022-08-11T08:43:26.745Z,52.64
2022-08-11T08:45:58.370Z,52.45
2022-08-11T08:48:30.045Z,51.75
2022-08-11T08:51:22.259Z,50.20
2022-08-11T08:53:53.928Z,51.21
2022-08-11T08:56:29.420Z,52.10
2022-08-11T08:59:02.187Z,51.05
2022-08-11T09:01:34.444Z,50.08
2022-08-11T09:04:10.759Z,50.88
2022-08-11T09:06:42.944Z,50.45
2022-08-11T09:09:13.283Z,49.16
2022-08-11T09:11:53.544Z,49.91
2022-08-11T09:14:24.828Z,49.45
2022-08-11T09:16:54.230Z,48.05
2022-08-11T09:19:22.934Z,46.35
2022-08-11T09:22:13.381Z,45.91
2022-08-11T09:24:59.890Z,47.13
2022-08-11T09:27:28.714Z,45.34
2022-08-11T09:29:58.399Z,46.32
2022-08-11T09:32:28.847Z,44.99
2022-08-11T09:34:57.898Z,45.44
2022-08-11T09:37:54.650Z,45.09
2022-08-11T09:40:33.647Z,42.77
2022-08-11T09:43:22.327Z,44.09
2022-08-11T09:45:54.310Z,44.29
2022-08-11T09:48:24.162Z,43.01
2022-08-11T09:50:55.386Z,43.13
2022-08-11T09:53:36.492Z,41.91
2022-08-11T09:56:30.313Z,41.74
2022-08-11T09:58:59.835Z,40.51
2022-08-11T10:01:34.153Z,39.76
2022-08-11T10:04:07.553Z,40.40
2022-08-11T10:06:57.832Z,41.08
2022-08-11T10:09:26.693Z,40.86
2022-08-11T10:11:58.702Z,40.01
2022-08-11T10:14:45.976Z,40.57
2022-08-11T10:17:18.043Z,40.21
2022-08-11T10:20:05.381Z,40.32
2022-08-11T10:22:53.350Z,38.53
2022-08-11T10:25:39.995Z,39.59
2022-08-11T10:28:28.280Z,38.71
2022-08-11T10:31:16.963Z,39.45
2022-08-11T10:34:03.875Z,39.12
2022-08-11T10:36:34.075Z,38.20
2022-08-11T10:39:04.477Z,38.14
2022-08-11T10:42:06.613Z,39.32
2022-08-11T10:44:39.317Z,38.60
2022-08-11T10:47:26.002Z,38.99
2022-08-11T10:50:11.361Z,37.62
2022-08-11T10:52:58.153Z,38.61
2022-08-11T10:55:45.023Z,38.18
2022-08-11T10:58:31.198Z,38.54
2022-08-11T11:01:01.042Z,36.25
2022-08-11T11:03:32.198Z,37.60
2022-08-11T11:06:13.003Z,37.49
2022-08-11T11:09:05.323Z,37.08
2022-08-11T11:11:56.898Z,36.45
2022-08-11T11:14:50.741Z,36.94
2022-08-11T11:17:45.818Z,37.14
2022-08-11T11:20:36.489Z,38.06
2022-08-11T11:23:19.951Z,36.57
2022-08-11T11:26:11.006Z,37.38
2022-08-11T11:29:20.478Z,37.76
2022-08-11T11:31:57.964Z,36.05
2022-08-11T11:34:47.982Z,36.00
2022-08-11T11:37:22.017Z,35.01
2022-08-11T11:39:52.427Z,35.73
2022-08-11T11:42:22.225Z,35.73
2022-08-11T11:44:55.328Z,36.14
2022-08-11T11:47:25.110Z,35.40
2022-08-11T11:49:54.557Z,35.49
2022-08-11T11:52:23.545Z,35.65
2022-08-11T11:54:55.552Z,35.25
2022-08-11T11:57:58.443Z,35.17
2022-08-11T12:00:47.230Z,34.79
2022-08-11T12:03:16.163Z,34.78
2022-08-11T12:05:45.820Z,34.90
2022-08-11T12:08:16.448Z,34.59
2022-08-11T12:10:49.057Z,35.84
2022-08-11T12:13:37.319Z,34.75
2022-08-11T12:16:35.624Z,34.09
2022-08-11T12:18:57.993Z,34.05
2022-08-11T12:21:28.487Z,34.85
2022-08-11T12:24:15.805Z,33.27
2022-08-11T12:27:16.149Z,34.42
2022-08-11T12:29:51.570Z,34.79
2022-08-11T12:32:26.978Z,34.01
2022-08-11T12:34:57.745Z,35.26
2022-08-11T12:37:31.429Z,34.30
2022-08-11T12:40:43.278Z,33.98
2022-08-11T12:43:38.626Z,32.50
2022-08-11T12:46:09.721Z,32.90
2022-08-11T12:49:02.723Z,32.00
2022-08-11T12:52:13.750Z,32.30
2022-08-11T12:54:57.363Z,33.72
2022-08-11T12:57:47.266Z,33.91
2022-08-11T13:00:36.026Z,33.48
2022-08-11T13:03:24.177Z,34.54
2022-08-11T13:05:56.566Z,32.66
2022-08-11T13:08:26.481Z,31.71
2022-08-11T13:11:14.108Z,32.47
2022-08-11T13:13:53.438Z,32.97
2022-08-11T13:16:30.396Z,32.97
2022-08-11T13:19:00.871Z,32.43
2022-08-11T13:21:32.190Z,32.04
2022-08-11T13:24:03.581Z,32.89
2022-08-11T13:26:46.613Z,32.83
2022-08-11T13:29:18.962Z,33.17
2022-08-11T13:31:50.120Z,32.48
2022-08-11T13:34:19.802Z,32.44
2022-08-11T13:36:52.195Z,32.26
2022-08-11T13:39:23.948Z,33.75
2022-08-11T13:41:56.687Z,33.23
2022-08-11T13:44:28.245Z,32.90
2022-08-11T13:47:01.337Z,33.82
2022-08-11T13:49:32.026Z,32.51
2022-08-11T13:52:00.829Z,32.92
2022-08-11T13:54:31.014Z,32.66
2022-08-11T13:57:03.064Z,34.16
2022-08-11T13:59:51.798Z,33.67
2022-08-11T14:02:30.212Z,34.37
2022-08-11T14:05:03.890Z,32.94
2022-08-11T14:07:39.089Z,33.69
2022-08-11T14:10:10.343Z,33.78
2022-08-11T14:12:59.112Z,33.73
2022-08-11T14:15:32.157Z,33.52
2022-08-11T14:18:05.054Z,33.28
2022-08-11T14:20:50.638Z,32.92
2022-08-11T14:23:20.484Z,32.30
2022-08-11T14:26:08.358Z,32.33
2022-08-11T14:28:44.398Z,32.22
2022-08-11T14:31:15.484Z,32.39
2022-08-11T14:33:59.587Z,33.30
2022-08-11T14:36:36.433Z,32.34
2022-08-11T14:39:11.674Z,32.52
2022-08-11T14:42:11.119Z,32.57
2022-08-11T14:45:16.602Z,32.47
2022-08-11T14:47:49.794Z,32.41
2022-08-11T14:50:24.024Z,32.35
2022-08-11T14:52:57.757Z,30.94
2022-08-11T14:55:44.842Z,32.50
2022-08-11T14:58:19.667Z,32.59
2022-08-11T15:00:51.110Z,32.49
2022-08-11T15:03:18.881Z,32.10
2022-08-11T15:05:56.981Z,31.84
2022-08-11T15:08:48.278Z,32.65
2022-08-11T15:11:36.130Z,31.66
2022-08-11T15:14:07.434Z,31.83
2022-08-11T15:16:55.059Z,31.80
2022-08-11T15:19:27.419Z,31.62
2022-08-11T15:22:14.140Z,31.93
2022-08-11T15:24:42.245Z,31.45
2022-08-11T15:27:31.580Z,31.81
2022-08-11T15:30:32.306Z,31.83
2022-08-11T15:33:23.277Z,30.98
2022-08-11T15:36:10.274Z,31.50
2022-08-11T15:38:42.582Z,33.62
2022-08-11T15:41:32.398Z,31.51
2022-08-11T15:44:24.531Z,31.60
2022-08-11T15:47:10.211Z,32.37
2022-08-11T15:50:13.195Z,32.53
2022-08-11T15:52:33.173Z,33.03
2022-08-11T15:55:08.738Z,33.01
2022-08-11T15:57:52.069Z,33.75
2022-08-11T16:00:38.550Z,32.83
2022-08-11T16:03:25.766Z,32.94
2022-08-11T16:06:14.313Z,33.82
2022-08-11T16:08:45.855Z,33.66
2022-08-11T16:11:16.283Z,32.88
2022-08-11T16:14:01.863Z,32.96
2022-08-11T16:16:31.798Z,34.20
2022-08-11T16:19:04.844Z,33.99
2022-08-11T16:21:36.380Z,33.31
2022-08-11T16:24:08.097Z,33.72
2022-08-11T16:27:08.579Z,34.53
2022-08-11T16:29:32.516Z,33.76
2022-08-11T16:32:20.658Z,33.81
2022-08-11T16:35:11.316Z,33.72
2022-08-11T16:37:59.170Z,34.26
2022-08-11T16:40:27.930Z,35.23
2022-08-11T16:43:16.388Z,35.82
2022-08-11T16:46:03.200Z,35.59
2022-08-11T16:48:38.186Z,36.07
2022-08-11T16:51:08.103Z,36.37
2022-08-11T16:54:03.359Z,36.99
2022-08-11T16:56:29.848Z,36.67
2022-08-11T16:59:14.956Z,37.38
2022-08-11T17:01:47.002Z,37.38
2022-08-11T17:04:39.303Z,36.90
2022-08-11T17:07:41.594Z,38.04
2022-08-11T17:10:50.443Z,37.54
2022-08-11T17:13:24.990Z,38.39
2022-08-11T17:16:11.639Z,38.22
2022-08-11T17:18:45.678Z,38.23
2022-08-11T17:21:18.567Z,38.82
2022-08-11T17:23:50.635Z,38.33
2022-08-11T17:26:21.927Z,39.12
2022-08-11T17:28:52.693Z,39.28
2022-08-11T17:31:41.312Z,39.04
2022-08-11T17:34:27.174Z,39.52
2022-08-11T17:36:57.193Z,40.18
2022-08-11T17:39:30.195Z,40.02
2022-08-11T17:42:14.570Z,39.92
2022-08-11T17:45:02.274Z,40.24
2022-08-11T17:47:50.745Z,40.08
2022-08-11T17:50:19.964Z,39.93
2022-08-11T17:53:07.506Z,40.62
2022-08-11T17:55:54.271Z,39.87
2022-08-11T17:58:41.931Z,39.80
2022-08-11T18:01:12.697Z,40.07
2022-08-11T18:03:53.276Z,40.75
2022-08-11T18:06:34.084Z,40.93
2022-08-11T18:09:24.033Z,41.01
2022-08-11T18:12:12.957Z,41.25
2022-08-11T18:15:03.750Z,41.53
2022-08-11T18:17:50.121Z,41.83
2022-08-11T18:20:37.448Z,41.94
2022-08-11T18:23:45.933Z,42.01
2022-08-11T18:26:37.992Z,42.51
2022-08-11T18:29:26.202Z,42.81
2022-08-11T18:32:20.798Z,43.28
2022-08-11T18:35:09.526Z,42.79
2022-08-11T18:38:02.316Z,43.10
2022-08-11T18:40:48.537Z,43.31
2022-08-11T18:43:36.694Z,43.63
2022-08-11T18:46:26.859Z,43.81
2022-08-11T18:49:18.436Z,43.90
2022-08-11T18:52:07.666Z,44.29
2022-08-11T18:54:58.126Z,44.42
2022-08-11T18:57:53.949Z,44.47
2022-08-11T19:00:41.721Z,45.14
2022-08-11T19:03:29.819Z,44.60
2022-08-11T19:06:38.069Z,45.02
2022-08-11T19:09:26.085Z,44.38
2022-08-11T19:12:14.358Z,44.94
2022-08-11T19:15:01.115Z,45.24
2022-08-11T19:17:49.480Z,46.12
2022-08-11T19:20:38.424Z,46.35
2022-08-11T19:23:26.174Z,46.71
2022-08-11T19:26:12.543Z,48.00
2022-08-11T19:29:01.630Z,48.51
2022-08-11T19:31:48.492Z,48.92
2022-08-11T19:34:37.281Z,50.54
2022-08-11T19:37:25.614Z,50.23
2022-08-11T19:40:13.384Z,49.81
2022-08-11T19:43:00.712Z,51.39
2022-08-11T19:45:52.226Z,51.88
2022-08-11T19:48:40.578Z,54.77
2022-08-11T19:51:28.146Z,53.75
2022-08-11T19:54:13.959Z,55.00
2022-08-11T19:57:01.060Z,56.27
2022-08-11T19:59:48.292Z,56.70
2022-08-11T20:02:35.819Z,57.80
2022-08-11T20:05:21.403Z,58.81
2022-08-11T20:08:08.150Z,61.34
2022-08-11T20:10:54.989Z,61.00
2022-08-11T20:13:43.630Z,61.95
2022-08-11T20:16:31.875Z,61.47
2022-08-11T20:19:26.331Z,62.81
2022-08-11T20:22:26.075Z,64.57
2022-08-11T20:25:13.462Z,65.40
2022-08-11T20:28:00.731Z,66.14
2022-08-11T20:30:48.241Z,66.23
2022-08-11T20:33:39.236Z,67.04
2022-08-11T20:36:27.565Z,67.70
2022-08-11T20:39:14.878Z,68.43
2022-08-11T20:42:01.756Z,67.28
2022-08-11T20:44:49.049Z,68.02
2022-08-11T20:47:59.918Z,69.58
2022-08-11T20:50:46.018Z,69.85
2022-08-11T20:53:36.097Z,70.12
2022-08-11T20:56:28.734Z,70.19
2022-08-11T21:02:26.497Z,70.97
2022-08-11T21:05:19.365Z,71.64
2022-08-11T21:08:09.673Z,72.25
2022-08-11T21:11:02.286Z,72.79
2022-08-11T21:13:55.901Z,73.08
2022-08-11T21:16:47.371Z,75.13
2022-08-11T21:19:59.466Z,75.44
2022-08-11T21:22:59.590Z,75.40
2022-08-11T21:25:54.705Z,75.22
2022-08-11T21:28:41.893Z,74.96
2022-08-11T21:31:28.026Z,74.91
2022-08-11T21:34:15.763Z,75.45
2022-08-11T21:37:03.457Z,75.08
2022-08-11T21:39:50.186Z,76.06
2022-08-11T21:42:38.293Z,75.84
2022-08-11T21:45:27.569Z,75.83
2022-08-11T21:48:14.273Z,76.54
2022-08-11T21:51:00.274Z,76.14
2022-08-11T21:53:46.530Z,75.96
2022-08-11T21:56:33.399Z,75.87
2022-08-11T21:59:20.547Z,76.90
2022-08-11T22:02:12.542Z,77.42
2022-08-11T22:04:58.914Z,77.31
2022-08-11T22:07:44.839Z,77.84
2022-08-11T22:10:40.675Z,78.91
2022-08-11T22:13:29.594Z,78.90
2022-08-11T22:16:15.475Z,79.52
2022-08-11T22:19:04.931Z,81.00
2022-08-11T22:22:01.765Z,82.08
2022-08-11T22:24:51.450Z,82.51
2022-08-11T22:27:36.796Z,82.54
2022-08-11T22:30:24.437Z,83.89
2022-08-11T22:33:11.148Z,83.18
2022-08-11T22:36:00.306Z,84.02
2022-08-11T22:38:46.737Z,83.58
2022-08-11T22:41:32.782Z,84.54
2022-08-11T22:44:18.038Z,84.35
2022-08-11T22:47:04.968Z,85.33
2022-08-11T22:49:58.177Z,85.82
2022-08-11T22:52:47.222Z,85.38
2022-08-11T22:55:33.598Z,85.56
2022-08-11T22:58:20.990Z,86.56
2022-08-11T23:01:07.375Z,86.78
2022-08-11T23:03:54.539Z,86.50
2022-08-11T23:06:40.699Z,86.99
2022-08-11T23:09:27.876Z,88.20
2022-08-11T23:12:13.760Z,88.09
2022-08-11T23:15:00.838Z,87.27
2022-08-11T23:17:47.184Z,87.23
2022-08-11T23:20:41.277Z,87.63
2022-08-11T23:23:40.971Z,88.24
2022-08-11T23:26:30.054Z,87.70
2022-08-11T23:29:17.447Z,88.02
2022-08-11T23:32:05.858Z,88.35
2022-08-11T23:35:03.791Z,87.91
2022-08-11T23:37:51.078Z,87.68
2022-08-11T23:40:36.370Z,87.71
2022-08-11T23:43:24.236Z,87.76
2022-08-11T23:46:09.418Z,87.37
2022-08-11T23:48:56.487Z,87.30
2022-08-11T23:51:42.749Z,87.70
2022-08-11T23:54:32.616Z,88.02
2022-08-11T23:57:21.715Z,88.71
